Time;durP1;ratioP1;P1;durP2;ratioP2;P2;SDS_P1;SDS_P2;PMS_P1;PMS_P2;Temp;Humidity;BMP_temperature;BMP_pressure;BME280_temperature;BME280_humidity;BME280_pressure;Samples;Min_cycle;Max_cycle;Signal;HPM_P1;HPM_P2
2024/03/28 00:02:00;;;;;;;8.93;6.17;;;8.60;99.90;;;;;;779441;184;26494;-77
2024/03/28 00:04:26;;;;;;;8.70;6.30;;;8.60;99.90;;;;;;779050;184;26472;-78
2024/03/28 00:06:53;;;;;;;8.67;5.87;;;8.50;99.90;;;;;;779387;184;26466;-77
2024/03/28 00:09:20;;;;;;;8.37;6.20;;;8.50;99.90;;;;;;782701;182;26467;-80
2024/03/28 00:11:46;;;;;;;7.03;5.70;;;8.50;99.90;;;;;;783577;182;27016;-79
2024/03/28 00:14:13;;;;;;;9.67;5.70;;;8.60;99.90;;;;;;781749;183;26443;-80
2024/03/28 00:16:40;;;;;;;6.50;5.80;;;8.60;99.90;;;;;;783928;183;26482;-80
2024/03/28 00:19:07;;;;;;;12.07;5.70;;;8.60;99.90;;;;;;783972;183;26488;-79
2024/03/28 00:21:33;;;;;;;5.77;5.17;;;8.50;99.90;;;;;;783715;183;26456;-79
2024/03/28 00:24:00;;;;;;;9.90;5.80;;;8.50;99.90;;;;;;787855;173;26472;-82
2024/03/28 00:26:27;;;;;;;9.47;5.63;;;8.50;99.90;;;;;;792477;181;26515;-82
2024/03/28 00:29:00;;;;;;;8.93;5.60;;;8.50;99.90;;;;;;809618;177;27010;-82
2024/03/28 00:31:26;;;;;;;9.00;5.70;;;8.40;99.90;;;;;;769847;184;26539;-81
2024/03/28 00:33:53;;;;;;;7.27;6.17;;;8.50;99.90;;;;;;778056;181;26477;-81
2024/03/28 00:36:21;;;;;;;7.73;5.93;;;8.40;99.90;;;;;;794057;179;26453;-82
2024/03/28 00:38:48;;;;;;;6.33;5.30;;;8.40;99.90;;;;;;778027;182;26482;-83
2024/03/28 00:41:16;;;;;;;6.97;5.30;;;8.40;99.90;;;;;;796750;180;26498;-80
2024/03/28 00:43:42;;;;;;;8.53;5.30;;;8.40;99.90;;;;;;799024;180;26442;-79
2024/03/28 00:46:09;;;;;;;6.37;5.60;;;8.40;99.90;;;;;;783397;183;26483;-81
2024/03/28 00:48:36;;;;;;;5.97;4.93;;;8.40;99.90;;;;;;792719;180;26457;-82
2024/03/28 00:51:02;;;;;;;7.63;5.33;;;8.30;99.90;;;;;;796530;178;26471;-82
2024/03/28 00:53:29;;;;;;;7.27;5.60;;;8.40;99.90;;;;;;778293;183;26497;-81
2024/03/28 00:55:56;;;;;;;8.57;6.30;;;8.40;99.90;;;;;;798948;180;26450;-82
2024/03/28 00:58:22;;;;;;;6.67;5.30;;;8.30;99.90;;;;;;774009;183;26487;-83
2024/03/28 01:00:49;;;;;;;8.43;6.20;;;8.30;99.90;;;;;;796844;180;26452;-82
2024/03/28 01:03:16;;;;;;;7.47;5.63;;;8.30;99.90;;;;;;777837;183;26472;-82
2024/03/28 01:05:42;;;;;;;6.57;5.77;;;8.30;99.90;;;;;;795988;179;26468;-83
2024/03/28 01:08:09;;;;;;;8.03;6.13;;;8.30;99.90;;;;;;778029;183;26505;-83
2024/03/28 01:10:36;;;;;;;10.27;7.33;;;8.30;99.90;;;;;;782204;181;26976;-84
2024/03/28 01:13:03;;;;;;;6.13;5.10;;;8.20;99.90;;;;;;791718;180;26504;-82
2024/03/28 01:15:29;;;;;;;7.27;5.70;;;8.20;99.90;;;;;;792017;181;26565;-83
2024/03/28 01:17:57;;;;;;;5.93;4.97;;;8.20;99.90;;;;;;788350;180;26477;-83
2024/03/28 01:20:23;;;;;;;7.33;5.60;;;8.20;99.90;;;;;;776857;184;26551;-81
2024/03/28 01:22:50;;;;;;;7.30;5.30;;;8.20;99.90;;;;;;798346;178;26458;-82
2024/03/28 01:25:19;;;;;;;7.07;5.10;;;8.10;99.90;;;;;;768736;171;26492;-79
2024/03/28 01:27:46;;;;;;;7.83;5.77;;;8.10;99.90;;;;;;811388;177;26445;-80
2024/03/28 01:30:16;;;;;;;6.57;5.10;;;8.20;99.90;;;;;;814499;173;26426;-80
2024/03/28 01:32:48;;;;;;;9.17;6.13;;;8.10;99.90;;;;;;825320;171;26432;-80
2024/03/28 01:35:18;;;;;;;8.00;5.93;;;8.10;99.90;;;;;;808631;174;26998;-80
2024/03/28 01:37:44;;;;;;;7.20;5.47;;;8.10;99.90;;;;;;805220;174;27041;-80
2024/03/28 01:40:11;;;;;;;6.03;4.70;;;8.10;99.90;;;;;;805889;177;26588;-80
2024/03/28 01:42:41;;;;;;;6.67;4.70;;;8.10;99.90;;;;;;804252;174;26469;-79
2024/03/28 01:45:10;;;;;;;6.30;4.97;;;8.10;99.90;;;;;;806658;175;26452;-80
2024/03/28 01:47:40;;;;;;;6.17;5.07;;;8.10;99.90;;;;;;805565;174;26428;-80
2024/03/28 01:50:07;;;;;;;6.67;5.07;;;8.10;99.90;;;;;;808970;174;26424;-79
2024/03/28 01:52:34;;;;;;;7.13;5.00;;;8.10;99.90;;;;;;810305;177;28032;-79
2024/03/28 01:55:00;;;;;;;7.27;4.70;;;8.10;99.90;;;;;;803258;176;26490;-79
2024/03/28 01:57:28;;;;;;;8.03;5.40;;;8.10;99.90;;;;;;807817;176;26431;-79
2024/03/28 01:59:54;;;;;;;10.27;5.10;;;8.10;99.90;;;;;;797508;180;26454;-78
2024/03/28 02:02:21;;;;;;;8.37;5.33;;;8.10;99.90;;;;;;799088;180;27654;-78
2024/03/28 02:04:47;;;;;;;6.13;4.87;;;8.10;99.90;;;;;;788107;181;26474;-80
2024/03/28 02:07:14;;;;;;;7.60;5.20;;;8.00;99.90;;;;;;808807;177;26444;-79
2024/03/28 02:09:41;;;;;;;6.30;5.10;;;8.00;99.90;;;;;;806401;177;26418;-79
2024/03/28 02:12:07;;;;;;;6.60;5.17;;;8.00;99.90;;;;;;804388;177;26557;-79
2024/03/28 02:14:34;;;;;;;7.03;5.20;;;8.00;99.90;;;;;;808997;174;26480;-80
2024/03/28 02:17:03;;;;;;;6.90;5.27;;;8.00;99.90;;;;;;805159;177;26449;-79
2024/03/28 02:19:30;;;;;;;7.83;5.27;;;8.00;99.90;;;;;;809075;176;26487;-79
2024/03/28 02:21:56;;;;;;;6.80;5.87;;;7.90;99.90;;;;;;802926;177;26430;-79
2024/03/28 02:24:23;;;;;;;7.10;5.67;;;7.90;99.90;;;;;;804544;174;26446;-79
2024/03/28 02:26:50;;;;;;;7.20;5.30;;;7.90;99.90;;;;;;795005;180;26472;-79
2024/03/28 02:29:16;;;;;;;9.53;6.57;;;7.80;99.90;;;;;;795831;179;26465;-79
2024/03/28 02:31:43;;;;;;;9.00;5.70;;;7.80;99.90;;;;;;795087;180;26495;-79
2024/03/28 02:34:09;;;;;;;9.13;6.00;;;7.80;99.90;;;;;;794797;178;26495;-78
2024/03/28 02:36:36;;;;;;;10.00;5.80;;;7.80;99.90;;;;;;793601;180;26446;-77
2024/03/28 02:39:03;;;;;;;10.13;5.90;;;7.70;99.90;;;;;;794672;180;26460;-79
2024/03/28 02:41:29;;;;;;;8.27;6.00;;;7.70;99.90;;;;;;792631;179;26503;-79
2024/03/28 02:43:56;;;;;;;9.23;6.63;;;7.60;99.90;;;;;;793788;180;26554;-80
2024/03/28 02:46:22;;;;;;;8.20;6.00;;;7.60;99.90;;;;;;802520;177;26445;-80
2024/03/28 02:48:49;;;;;;;8.00;6.10;;;7.50;99.90;;;;;;802900;177;26430;-80
2024/03/28 02:51:16;;;;;;;8.93;6.63;;;7.40;99.90;;;;;;808279;174;26954;-80
2024/03/28 02:53:42;;;;;;;8.83;6.20;;;7.40;99.90;;;;;;804309;177;26488;-80
2024/03/28 02:56:09;;;;;;;7.73;6.50;;;7.30;99.90;;;;;;803197;177;26505;-79
2024/03/28 02:58:36;;;;;;;7.87;6.30;;;7.40;99.90;;;;;;808633;174;26994;-80
2024/03/28 03:01:03;;;;;;;7.47;6.40;;;7.40;99.90;;;;;;798473;179;26480;-79
2024/03/28 03:03:30;;;;;;;9.50;6.57;;;7.30;99.90;;;;;;795997;178;26513;-80
2024/03/28 03:05:57;;;;;;;10.83;6.70;;;7.30;99.90;;;;;;789656;178;26436;-79
2024/03/28 03:08:23;;;;;;;8.93;6.63;;;7.30;99.90;;;;;;798158;180;26429;-80
2024/03/28 03:10:50;;;;;;;10.80;7.10;;;7.20;99.90;;;;;;809470;174;26432;-80
2024/03/28 03:13:16;;;;;;;10.07;7.00;;;7.20;99.90;;;;;;803584;176;26452;-80
2024/03/28 03:15:43;;;;;;;11.90;6.97;;;7.30;99.90;;;;;;804907;174;26471;-81
2024/03/28 03:18:09;;;;;;;8.87;7.17;;;7.20;99.90;;;;;;795065;180;27053;-80
2024/03/28 03:20:41;;;;;;;8.63;6.77;;;7.20;99.90;;;;;;798159;180;26530;-80
2024/03/28 03:23:04;;;;;;;10.20;7.27;;;7.20;99.90;;;;;;803296;174;26954;-79
2024/03/28 03:25:49;;;;;;;14.17;7.43;;;7.20;99.90;;;;;;809487;177;26437;-80
2024/03/28 03:35:35;;;;;;;9.07;7.23;;;7.10;99.90;;;;;;810711;177;26437;-81
2024/03/28 03:38:02;;;;;;;11.03;7.50;;;7.10;99.90;;;;;;808215;178;26424;-79
2024/03/28 03:40:28;;;;;;;10.63;7.03;;;7.10;99.90;;;;;;805008;177;26515;-80
2024/03/28 03:42:54;;;;;;;11.47;7.47;;;7.00;99.90;;;;;;808815;174;26437;-80
2024/03/28 03:45:21;;;;;;;9.97;7.10;;;7.00;99.90;;;;;;797854;177;26487;-79
2024/03/28 03:47:48;;;;;;;11.27;7.23;;;7.10;99.90;;;;;;804316;177;26419;-79
2024/03/28 03:50:14;;;;;;;12.40;7.03;;;7.10;99.90;;;;;;803479;177;27662;-79
2024/03/28 03:52:41;;;;;;;10.60;7.40;;;7.10;99.90;;;;;;801253;177;26438;-79
2024/03/28 03:55:07;;;;;;;10.77;7.33;;;7.20;99.90;;;;;;800220;177;26504;-78
2024/03/28 03:57:34;;;;;;;9.90;7.10;;;7.20;99.90;;;;;;792263;180;26442;-79
2024/03/28 04:00:01;;;;;;;11.73;6.63;;;7.20;99.90;;;;;;799278;177;26485;-80
2024/03/28 04:02:27;;;;;;;10.70;7.47;;;7.10;99.90;;;;;;803018;177;26523;-80
2024/03/28 04:04:54;;;;;;;10.37;7.10;;;7.10;99.90;;;;;;804338;177;26484;-79
2024/03/28 04:07:21;;;;;;;11.60;7.77;;;7.00;99.90;;;;;;808525;178;26437;-80
2024/03/28 04:09:47;;;;;;;12.30;7.80;;;6.90;99.90;;;;;;806808;176;26432;-80
2024/03/28 04:12:14;;;;;;;10.43;6.57;;;6.90;99.90;;;;;;806094;176;26455;-79
2024/03/28 04:14:41;;;;;;;10.53;7.70;;;6.90;99.90;;;;;;810791;174;26461;-80
2024/03/28 04:17:07;;;;;;;10.40;7.63;;;7.00;99.90;;;;;;807926;176;27030;-80
2024/03/28 04:19:33;;;;;;;10.87;7.37;;;6.90;99.90;;;;;;808488;174;26461;-78
2024/03/28 04:22:00;;;;;;;10.17;7.30;;;6.90;99.90;;;;;;803975;174;26578;-80
2024/03/28 04:24:27;;;;;;;10.17;7.53;;;6.80;99.90;;;;;;808532;176;27027;-80
2024/03/28 04:26:53;;;;;;;10.43;7.33;;;6.80;99.90;;;;;;801550;177;26446;-79
2024/03/28 04:29:20;;;;;;;12.47;7.93;;;6.90;99.90;;;;;;809757;177;26953;-80
2024/03/28 04:31:46;;;;;;;10.83;7.63;;;6.90;99.90;;;;;;794356;180;26459;-79
2024/03/28 04:34:14;;;;;;;10.57;7.47;;;6.90;99.90;;;;;;804336;176;26461;-79
2024/03/28 04:36:40;;;;;;;10.83;7.13;;;6.90;99.90;;;;;;803188;177;26428;-79
2024/03/28 04:39:07;;;;;;;10.63;8.13;;;6.90;99.90;;;;;;806898;177;26438;-79
2024/03/28 04:41:34;;;;;;;9.23;7.30;;;6.80;99.90;;;;;;805119;177;26450;-79
2024/03/28 04:44:01;;;;;;;12.63;7.83;;;6.80;99.90;;;;;;792786;180;28095;-79
2024/03/28 04:46:27;;;;;;;10.70;7.33;;;6.80;99.90;;;;;;816881;174;26418;-79
2024/03/28 04:48:53;;;;;;;11.80;7.87;;;6.70;99.90;;;;;;795509;179;26501;-79
2024/03/28 04:51:20;;;;;;;11.40;8.17;;;6.70;99.90;;;;;;794108;180;26449;-80
2024/03/28 04:53:47;;;;;;;12.97;8.33;;;6.70;99.90;;;;;;792182;180;26471;-79
2024/03/28 04:56:13;;;;;;;11.60;8.30;;;6.70;99.90;;;;;;790312;179;26457;-79
2024/03/28 04:58:40;;;;;;;11.53;8.27;;;6.60;99.90;;;;;;789463;179;26446;-79
2024/03/28 05:01:06;;;;;;;11.50;8.40;;;6.60;99.90;;;;;;793798;179;26992;-78
2024/03/28 05:03:33;;;;;;;11.03;8.37;;;6.70;99.90;;;;;;794521;179;26629;-79
2024/03/28 05:06:00;;;;;;;13.27;7.97;;;6.60;99.90;;;;;;796837;179;26443;-79
2024/03/28 05:08:26;;;;;;;12.47;8.53;;;6.70;99.90;;;;;;790442;180;26479;-80
2024/03/28 05:10:53;;;;;;;11.47;8.17;;;6.70;99.90;;;;;;793677;179;26456;-79
2024/03/28 05:13:19;;;;;;;13.57;8.33;;;6.70;99.90;;;;;;788698;180;26491;-79
2024/03/28 05:15:46;;;;;;;15.17;8.73;;;6.70;99.90;;;;;;790268;179;26475;-80
2024/03/28 05:18:13;;;;;;;13.67;7.93;;;6.70;99.90;;;;;;794529;179;26462;-79
2024/03/28 05:20:39;;;;;;;11.47;7.70;;;6.70;99.90;;;;;;789738;180;26440;-80
2024/03/28 05:23:06;;;;;;;11.53;7.90;;;6.70;99.90;;;;;;798978;177;26454;-79
2024/03/28 05:25:32;;;;;;;9.70;7.27;;;6.80;99.90;;;;;;794148;179;26455;-79
2024/03/28 05:27:59;;;;;;;10.17;7.03;;;6.80;99.90;;;;;;792251;180;26455;-80
2024/03/28 05:30:26;;;;;;;13.07;7.70;;;6.80;99.90;;;;;;794959;179;26461;-80
2024/03/28 05:32:52;;;;;;;11.63;7.97;;;6.70;99.90;;;;;;796060;179;26455;-80
2024/03/28 05:35:19;;;;;;;10.07;7.27;;;6.70;99.90;;;;;;790549;180;26516;-79
2024/03/28 05:37:46;;;;;;;13.00;7.43;;;6.70;99.90;;;;;;789314;179;26984;-76
2024/03/28 05:40:12;;;;;;;9.23;6.90;;;6.70;99.90;;;;;;791331;179;26532;-76
2024/03/28 05:42:39;;;;;;;8.63;6.90;;;6.70;99.90;;;;;;792442;179;26461;-76
2024/03/28 05:45:06;;;;;;;8.83;6.80;;;6.80;99.90;;;;;;793258;179;26502;-76
2024/03/28 05:47:33;;;;;;;8.93;6.73;;;6.80;99.90;;;;;;794925;180;27036;-79
2024/03/28 05:49:59;;;;;;;9.00;6.83;;;6.80;99.90;;;;;;794027;179;26455;-80
2024/03/28 05:52:26;;;;;;;10.03;6.60;;;6.70;99.90;;;;;;791328;180;26472;-79
2024/03/28 05:54:53;;;;;;;11.43;6.30;;;6.70;99.90;;;;;;790967;180;26471;-80
2024/03/28 05:57:19;;;;;;;8.43;6.10;;;6.80;99.90;;;;;;794748;178;26444;-79
2024/03/28 05:59:46;;;;;;;9.37;6.00;;;6.80;99.90;;;;;;789693;179;26438;-78
2024/03/28 06:02:12;;;;;;;9.87;6.07;;;6.80;99.90;;;;;;791084;179;27009;-79
2024/03/28 06:04:39;;;;;;;7.17;5.50;;;6.80;99.90;;;;;;790927;180;26486;-80
2024/03/28 06:07:06;;;;;;;8.10;5.00;;;6.90;99.90;;;;;;792658;180;26452;-79
2024/03/28 06:09:33;;;;;;;7.27;5.20;;;7.00;99.90;;;;;;788806;180;27028;-79
2024/03/28 06:11:59;;;;;;;11.57;4.70;;;7.10;99.90;;;;;;791514;179;26456;-80
2024/03/28 06:14:26;;;;;;;8.93;4.70;;;7.20;99.90;;;;;;788630;179;26595;-79
2024/03/28 06:16:53;;;;;;;7.03;5.30;;;7.20;99.90;;;;;;792986;179;26438;-79
2024/03/28 06:19:19;;;;;;;7.07;4.53;;;7.30;99.90;;;;;;791863;180;26988;-80
2024/03/28 06:21:46;;;;;;;6.73;4.60;;;7.40;99.90;;;;;;792246;179;26511;-79
2024/03/28 06:24:13;;;;;;;7.27;4.13;;;7.50;99.90;;;;;;792441;179;26491;-79
2024/03/28 06:29:20;;;;;;;6.47;3.90;;;7.60;99.90;;;;;;747200;190;26615;-80
2024/03/28 06:31:47;;;;;;;4.63;3.70;;;7.80;99.90;;;;;;749932;187;26544;-80
2024/03/28 06:34:13;;;;;;;4.70;3.90;;;7.90;99.90;;;;;;745807;189;27087;-80
2024/03/28 06:36:40;;;;;;;7.03;4.07;;;8.10;99.90;;;;;;759202;189;26667;-79
2024/03/28 06:39:08;;;;;;;9.87;3.80;;;8.30;99.90;;;;;;743532;193;26541;-79
2024/03/28 06:41:34;;;;;;;6.87;3.80;;;8.50;99.90;;;;;;753814;187;26518;-80
2024/03/28 06:44:00;;;;;;;8.50;4.27;;;8.50;99.90;;;;;;760954;188;26495;-78
2024/03/28 06:46:27;;;;;;;6.63;3.43;;;8.70;99.90;;;;;;760074;187;26528;-80
2024/03/28 06:48:53;;;;;;;6.07;3.33;;;8.70;99.90;;;;;;759339;188;26543;-79
2024/03/28 06:51:20;;;;;;;6.33;3.30;;;8.70;99.90;;;;;;760778;188;26565;-78
2024/03/28 06:53:47;;;;;;;5.17;3.20;;;8.80;99.90;;;;;;759507;187;26507;-81
2024/03/28 06:56:13;;;;;;;6.20;3.30;;;8.90;99.90;;;;;;758622;189;26652;-79
2024/03/28 06:58:40;;;;;;;6.10;2.97;;;8.90;99.90;;;;;;758784;187;26709;-79
2024/03/28 07:01:06;;;;;;;5.30;3.33;;;9.00;99.90;;;;;;758810;189;26542;-79
2024/03/28 07:03:33;;;;;;;5.00;3.20;;;9.00;99.90;;;;;;759048;189;26526;-80
2024/03/28 07:06:00;;;;;;;6.10;3.20;;;9.00;99.90;;;;;;757035;188;26511;-78
2024/03/28 07:08:26;;;;;;;6.17;3.73;;;9.00;99.90;;;;;;756895;189;26517;-79
2024/03/28 07:10:53;;;;;;;4.33;3.20;;;8.90;99.90;;;;;;756707;189;26559;-79
2024/03/28 07:13:20;;;;;;;7.70;3.87;;;8.90;99.90;;;;;;752898;188;26676;-80
2024/03/28 07:15:46;;;;;;;8.47;4.20;;;8.90;99.90;;;;;;758428;189;26539;-79
2024/03/28 07:18:13;;;;;;;6.90;3.77;;;8.80;99.90;;;;;;757301;189;26610;-78
2024/03/28 07:20:39;;;;;;;8.80;3.97;;;8.70;99.90;;;;;;752487;188;26524;-79
2024/03/28 07:23:06;;;;;;;5.67;3.60;;;8.70;99.90;;;;;;755572;190;27066;-79
2024/03/28 07:25:33;;;;;;;5.43;3.67;;;8.70;99.90;;;;;;756118;189;27059;-79
2024/03/28 07:27:59;;;;;;;10.83;4.97;;;8.60;99.90;;;;;;756042;187;26703;-80
2024/03/28 07:30:26;;;;;;;6.80;4.10;;;8.50;99.90;;;;;;761780;186;26529;-79
2024/03/28 07:32:52;;;;;;;6.70;4.10;;;8.40;99.90;;;;;;759076;186;26491;-78
2024/03/28 07:35:19;;;;;;;7.47;4.30;;;8.30;99.90;;;;;;759835;188;26543;-78
2024/03/28 07:37:47;;;;;;;6.07;4.87;;;8.30;99.90;;;;;;760783;188;26736;-78
2024/03/28 07:40:12;;;;;;;8.53;4.10;;;8.30;99.90;;;;;;760966;186;26733;-79
2024/03/28 07:42:39;;;;;;;7.67;4.17;;;8.20;99.90;;;;;;761589;188;26502;-78
2024/03/28 07:45:06;;;;;;;6.07;3.93;;;8.00;99.90;;;;;;762486;186;26546;-78
2024/03/28 07:47:33;;;;;;;14.63;5.80;;;7.90;99.90;;;;;;761942;188;26503;-81
2024/03/28 07:50:00;;;;;;;6.73;4.10;;;7.90;99.90;;;;;;759575;189;26648;-80
2024/03/28 07:52:26;;;;;;;7.90;4.43;;;7.80;99.90;;;;;;759856;189;26532;-81
2024/03/28 07:54:53;;;;;;;4.87;4.23;;;7.80;99.90;;;;;;757317;187;26518;-80
2024/03/28 07:57:19;;;;;;;8.07;5.00;;;7.80;99.90;;;;;;757083;189;26645;-81
2024/03/28 07:59:46;;;;;;;6.47;4.43;;;7.80;99.90;;;;;;757414;187;26506;-78
2024/03/28 08:02:13;;;;;;;7.67;4.33;;;7.80;99.90;;;;;;756514;190;26503;-81
2024/03/28 08:04:39;;;;;;;5.00;3.60;;;7.80;99.90;;;;;;756148;187;26503;-78
2024/03/28 08:07:06;;;;;;;3.90;3.07;;;7.80;99.90;;;;;;760340;188;26511;-78
2024/03/28 08:09:32;;;;;;;7.23;3.20;;;7.90;99.90;;;;;;759756;188;26552;-80
2024/03/28 08:12:07;;;;;;;6.17;3.10;;;7.90;99.90;;;;;;760144;188;26503;-79
2024/03/28 08:14:26;;;;;;;3.93;3.10;;;7.90;99.90;;;;;;759404;188;26521;-80
2024/03/28 08:16:52;;;;;;;3.27;2.10;;;7.80;99.90;;;;;;759941;188;26973;-79
2024/03/28 08:19:19;;;;;;;3.10;2.57;;;7.80;99.90;;;;;;759346;188;26510;-78
2024/03/28 08:21:46;;;;;;;3.00;2.23;;;7.80;99.90;;;;;;758369;187;26527;-79
2024/03/28 08:24:12;;;;;;;3.50;2.47;;;7.90;99.90;;;;;;741257;193;26556;-80
2024/03/28 08:26:41;;;;;;;9.87;2.67;;;7.90;99.90;;;;;;741337;191;26552;-78
2024/03/28 08:29:26;;;;;;;6.73;2.73;;;8.00;99.90;;;;;;756755;187;26543;-79
2024/03/28 08:31:59;;;;;;;3.80;2.63;;;8.00;99.90;;;;;;756198;187;26655;-79
2024/03/28 08:34:49;;;;;;;5.33;2.50;;;8.00;99.90;;;;;;744076;189;26593;-80
2024/03/28 08:37:28;;;;;;;4.13;2.07;;;8.00;99.90;;;;;;739608;192;26745;-79
2024/03/28 08:39:58;;;;;;;6.63;2.00;;;8.10;99.90;;;;;;742150;190;26547;-79
2024/03/28 08:42:31;;;;;;;2.63;2.40;;;8.10;99.90;;;;;;742080;194;26532;-79
2024/03/28 08:45:12;;;;;;;2.57;1.83;;;8.10;99.90;;;;;;751965;188;26528;-78
2024/03/28 08:47:44;;;;;;;3.17;2.27;;;8.10;99.90;;;;;;762260;171;27089;-85
2024/03/28 08:50:09;;;;;;;4.87;2.47;;;8.10;99.90;;;;;;784642;180;27025;-84
2024/03/28 08:52:35;;;;;;;3.83;2.03;;;8.10;99.90;;;;;;781216;180;26480;-84
2024/03/28 08:55:01;;;;;;;2.40;1.87;;;8.10;99.90;;;;;;776883;181;26475;-82
2024/03/28 08:57:28;;;;;;;2.87;2.10;;;8.10;99.90;;;;;;784917;180;26479;-82
2024/03/28 08:59:54;;;;;;;2.70;2.30;;;8.10;99.90;;;;;;781508;180;27022;-82
2024/03/28 09:02:21;;;;;;;2.97;2.40;;;8.10;99.90;;;;;;783922;180;26475;-83
2024/03/28 09:04:48;;;;;;;4.00;2.83;;;8.20;99.90;;;;;;778573;182;26438;-84
2024/03/28 09:07:15;;;;;;;3.30;2.57;;;8.20;99.90;;;;;;787621;182;26461;-81
2024/03/28 09:09:42;;;;;;;2.70;2.33;;;8.30;99.90;;;;;;780143;181;27677;-85
2024/03/28 09:12:09;;;;;;;5.07;2.40;;;8.30;99.90;;;;;;775158;181;26459;-84
2024/03/28 09:14:35;;;;;;;2.97;2.30;;;8.40;99.90;;;;;;784933;181;26465;-84
2024/03/28 09:17:02;;;;;;;23.63;8.53;;;8.50;99.90;;;;;;781137;181;27003;-83
2024/03/28 09:19:29;;;;;;;4.10;2.60;;;8.60;99.90;;;;;;777260;181;26972;-84
2024/03/28 09:21:55;;;;;;;2.50;2.27;;;8.60;99.90;;;;;;777182;181;26454;-84
2024/03/28 09:24:22;;;;;;;3.73;2.47;;;8.60;99.90;;;;;;779730;181;26987;-84
2024/03/28 09:26:49;;;;;;;3.53;2.20;;;8.60;99.90;;;;;;775329;182;26496;-86
2024/03/28 09:29:20;;;;;;;4.80;2.67;;;8.60;99.90;;;;;;779395;182;26476;-82
2024/03/28 09:31:44;;;;;;;4.47;2.60;;;8.70;99.90;;;;;;778885;181;26992;-82
2024/03/28 09:34:10;;;;;;;2.10;1.90;;;8.80;99.90;;;;;;781531;181;26483;-84
2024/03/28 09:36:37;;;;;;;4.23;2.40;;;8.90;99.90;;;;;;782167;181;26471;-85
2024/03/28 09:39:03;;;;;;;5.93;2.80;;;8.80;99.90;;;;;;776583;182;26522;-83
2024/03/28 09:41:30;;;;;;;2.63;2.30;;;8.90;99.90;;;;;;788030;181;26602;-82
2024/03/28 09:43:58;;;;;;;2.37;2.13;;;8.90;99.90;;;;;;773806;183;27025;-85
2024/03/28 09:46:24;;;;;;;4.20;2.20;;;9.00;99.90;;;;;;778250;180;26975;-86
2024/03/28 09:48:51;;;;;;;4.83;3.23;;;9.00;99.90;;;;;;779008;181;27177;-84
2024/03/28 09:51:17;;;;;;;2.20;2.00;;;9.00;99.90;;;;;;774026;185;26471;-84
2024/03/28 09:53:44;;;;;;;14.43;6.33;;;9.00;99.90;;;;;;779147;182;26431;-84
2024/03/28 09:56:11;;;;;;;5.83;3.30;;;9.00;99.90;;;;;;773641;181;26456;-84
2024/03/28 09:58:38;;;;;;;10.77;5.20;;;8.90;99.90;;;;;;782530;181;26624;-82
2024/03/28 10:01:05;;;;;;;24.10;12.83;;;8.80;99.90;;;;;;775135;181;26526;-82
2024/03/28 10:03:33;;;;;;;6.40;3.90;;;8.70;99.90;;;;;;773493;184;26475;-82
2024/03/28 10:05:59;;;;;;;16.50;8.37;;;8.60;99.90;;;;;;777681;182;26510;-83
2024/03/28 10:08:26;;;;;;;4.20;2.67;;;8.60;99.90;;;;;;778488;181;26456;-82
2024/03/28 10:10:52;;;;;;;10.43;5.47;;;8.70;99.90;;;;;;778876;181;26490;-84
2024/03/28 10:13:19;;;;;;;15.87;9.67;;;8.80;99.90;;;;;;787515;180;26454;-83
2024/03/28 10:15:55;;;;;;;12.87;7.07;;;8.80;99.90;;;;;;779008;181;26605;-82
2024/03/28 10:18:21;;;;;;;24.13;11.23;;;8.90;99.90;;;;;;778534;181;26522;-83
2024/03/28 10:20:57;;;;;;;5.10;2.67;;;9.00;99.90;;;;;;783751;182;26469;-84
2024/03/28 10:23:24;;;;;;;4.00;1.80;;;9.00;99.90;;;;;;779767;181;26435;-83
2024/03/28 10:25:52;;;;;;;2.43;1.93;;;9.20;99.90;;;;;;780016;182;26445;-81
2024/03/28 10:28:21;;;;;;;3.70;1.90;;;9.30;99.90;;;;;;782422;182;26496;-85
2024/03/28 10:30:49;;;;;;;3.00;1.90;;;9.50;99.90;;;;;;784714;178;26569;-85
2024/03/28 10:33:15;;;;;;;21.70;12.23;;;9.70;99.90;;;;;;797195;179;27031;-83
2024/03/28 10:35:42;;;;;;;15.43;9.53;;;9.80;99.90;;;;;;789071;178;26422;-81
2024/03/28 10:38:10;;;;;;;34.73;17.87;;;9.80;99.90;;;;;;794884;178;26433;-84
2024/03/28 10:40:37;;;;;;;5.17;3.33;;;10.00;99.90;;;;;;793924;179;26477;-83
2024/03/28 10:43:05;;;;;;;4.50;2.40;;;10.10;99.90;;;;;;786142;178;26579;-84
2024/03/28 10:45:31;;;;;;;3.47;2.10;;;10.40;99.90;;;;;;788293;179;26470;-84
2024/03/28 10:47:59;;;;;;;2.90;1.93;;;10.80;99.90;;;;;;796588;178;26465;-86
2024/03/28 10:50:28;;;;;;;78.63;38.57;;;11.30;99.90;;;;;;792011;178;26443;-85
2024/03/28 10:52:55;;;;;;;7.30;3.97;;;12.40;99.90;;;;;;792922;178;26451;-85
2024/03/28 10:55:23;;;;;;;3.07;2.20;;;13.00;99.90;;;;;;799544;178;26441;-83
2024/03/28 10:57:50;;;;;;;1.93;1.37;;;13.20;99.90;;;;;;796706;178;26456;-82
2024/03/28 11:00:17;;;;;;;4.37;2.00;;;12.50;99.10;;;;;;787487;178;26437;-83
2024/03/28 11:02:44;;;;;;;2.27;1.90;;;12.50;99.90;;;;;;788814;178;26461;-81
2024/03/28 11:05:11;;;;;;;2.37;1.87;;;12.70;99.90;;;;;;793235;178;26424;-81
2024/03/28 11:07:37;;;;;;;3.97;2.10;;;13.30;99.10;;;;;;783978;179;26434;-81
2024/03/28 11:10:04;;;;;;;2.30;1.60;;;14.50;97.40;;;;;;787860;179;26621;-81
2024/03/28 11:12:31;;;;;;;2.50;1.40;;;14.40;93.10;;;;;;789940;179;26596;-80
2024/03/28 11:15:03;;;;;;;3.50;2.43;;;13.90;95.00;;;;;;796079;177;26451;-83
2024/03/28 11:17:26;;;;;;;8.47;4.20;;;13.30;97.60;;;;;;790738;178;26433;-81
2024/03/28 11:20:01;;;;;;;4.10;2.90;;;13.20;95.80;;;;;;791560;177;27079;-82
2024/03/28 11:22:27;;;;;;;4.67;2.67;;;14.20;97.90;;;;;;798191;177;26447;-82
2024/03/28 11:24:54;;;;;;;5.53;2.10;;;15.90;93.10;;;;;;792097;179;26457;-81
2024/03/28 11:27:21;;;;;;;1.53;1.33;;;17.20;79.20;;;;;;790368;178;26571;-81
2024/03/28 11:29:48;;;;;;;4.00;2.60;;;16.50;79.80;;;;;;796423;178;26458;-81
2024/03/28 11:32:20;;;;;;;12.67;5.73;;;16.00;86.80;;;;;;794471;179;26459;-81
2024/03/28 11:34:47;;;;;;;4.17;1.97;;;15.10;79.30;;;;;;793903;178;26591;-83
2024/03/28 11:37:21;;;;;;;7.50;4.23;;;14.00;90.00;;;;;;795694;179;26580;-82
2024/03/28 11:39:47;;;;;;;15.57;7.93;;;13.60;82.10;;;;;;795051;178;26786;-83
2024/03/28 11:42:16;;;;;;;3.90;2.03;;;13.90;76.50;;;;;;794327;178;27663;-83
2024/03/28 11:44:43;;;;;;;6.33;3.43;;;14.00;74.30;;;;;;795219;179;26441;-81
2024/03/28 11:47:09;;;;;;;7.43;4.40;;;14.60;74.50;;;;;;792794;178;26572;-82
2024/03/28 11:49:36;;;;;;;9.33;5.80;;;15.10;61.40;;;;;;791125;178;26450;-82
2024/03/28 11:52:03;;;;;;;3.47;2.00;;;14.90;54.50;;;;;;791067;179;26473;-82
2024/03/28 11:54:29;;;;;;;3.30;1.80;;;15.00;54.90;;;;;;795768;178;26459;-82
2024/03/28 11:56:56;;;;;;;2.97;2.30;;;15.70;51.60;;;;;;787033;179;26583;-82
2024/03/28 11:59:23;;;;;;;3.73;2.10;;;14.60;53.80;;;;;;785980;179;26440;-79
2024/03/28 12:01:49;;;;;;;4.90;2.40;;;13.80;70.50;;;;;;795994;178;26621;-81
2024/03/28 12:04:22;;;;;;;3.77;1.80;;;13.80;67.20;;;;;;799347;178;26590;-81
2024/03/28 12:06:49;;;;;;;2.13;1.43;;;13.80;67.40;;;;;;793221;178;27002;-80
2024/03/28 12:09:17;;;;;;;4.23;2.70;;;13.40;63.50;;;;;;794103;178;26446;-80
2024/03/28 12:44:56;;;;;;;29.40;13.80;;;12.90;79.70;;;;;;789565;179;26953;-81
2024/03/28 12:47:23;;;;;;;4.10;2.20;;;12.90;85.50;;;;;;800125;178;26566;-81
2024/03/28 12:49:49;;;;;;;27.87;12.60;;;14.50;79.20;;;;;;791365;178;26445;-81
2024/03/28 12:52:19;;;;;;;3.13;1.60;;;14.10;75.10;;;;;;789228;178;26451;-82
2024/03/28 12:54:46;;;;;;;55.90;24.57;;;13.60;80.00;;;;;;794122;179;26593;-80
2024/03/28 12:57:12;;;;;;;7.03;4.00;;;13.30;88.30;;;;;;786529;178;26445;-81
2024/03/28 12:59:39;;;;;;;5.67;2.70;;;13.00;89.00;;;;;;789016;178;28088;-81
2024/03/28 13:02:06;;;;;;;8.93;5.77;;;12.50;92.30;;;;;;788162;179;26436;-81
2024/03/28 13:04:32;;;;;;;4.07;2.33;;;12.30;93.80;;;;;;798483;178;26424;-82
2024/03/28 13:06:59;;;;;;;7.87;5.00;;;12.00;94.40;;;;;;787172;178;26432;-81
2024/03/28 13:09:25;;;;;;;10.50;5.00;;;11.60;99.20;;;;;;796474;178;26452;-80
2024/03/28 13:11:53;;;;;;;41.30;17.90;;;10.90;99.90;;;;;;790360;178;26577;-81
2024/03/28 13:14:18;;;;;;;41.27;18.10;;;10.20;99.90;;;;;;796573;178;26431;-81
2024/03/28 13:16:45;;;;;;;35.73;16.37;;;9.80;99.90;;;;;;797315;178;26453;-81
2024/03/28 13:19:12;;;;;;;58.60;24.50;;;9.50;99.90;;;;;;794921;178;27036;-81
2024/03/28 13:21:38;;;;;;;34.70;15.90;;;10.20;99.90;;;;;;790274;178;26478;-81
2024/03/28 13:24:05;;;;;;;14.83;6.87;;;11.20;99.90;;;;;;800208;178;26415;-82
2024/03/28 13:26:32;;;;;;;17.17;8.83;;;12.10;99.90;;;;;;794451;178;26447;-80
2024/03/28 13:29:01;;;;;;;3.53;2.50;;;12.90;99.90;;;;;;792730;179;26438;-80
2024/03/28 13:31:25;;;;;;;3.03;2.13;;;14.30;99.90;;;;;;789818;178;26445;-80
2024/03/28 13:33:52;;;;;;;2.43;1.60;;;15.00;98.10;;;;;;792405;179;26433;-81
2024/03/28 13:36:18;;;;;;;4.63;2.50;;;15.80;95.80;;;;;;787541;179;26469;-80